Prosperity, SC (29127)

2:35 PM EDT on September 01, 2015 (GMT -0400)
Lake Murray | | Change Station
CLOSE
Current Station
Personal Weather Station
Location: Prosperity, SC
Elevation: 381 ft
Nearby Weather Stations

Elev 381 ft 34.12 °N, 81.49 °W | Updated 7 minutes ago

Mostly Cloudy
Mostly Cloudy
91.6 °F
Feels Like 96 °F
N
1.7
Wind Variable Wind from WNW

Today
High -- | Low -- °F
--% Chance of Precip.
Yesterday
High -- | Low -- °F
Precip. -- in
6:59 AM 7:52 PM
Waning Gibbous, 87% visible
Pressure 30.13 in
Visibility 10.0 miles
Clouds Scattered Clouds 5000 ft
Heat Index 96 °F
Dew Point 68 °F
Humidity 46%
Rainfall 0.00 in
Snow Depth Not available.
UV 8 out of 12
Pollen 8.40 out of 12
Air Quality Not available.
Flu Activity Not available.
METAR KEOE 011815Z AUTO 13003KT 10SM SCT050 30/18 A3013 RMK AO2
Pressure 30.13 in
Visibility 10.0 miles
Clouds Scattered Clouds 5000 ft
Heat Index 96 °F
Dew Point 68 °F
Humidity 46%
Rainfall 0.00 in
Snow Depth Not available.
UV 8 out of 12
Pollen 8.40 out of 12
Air Quality Not available.
Flu Activity Not available.
METAR KEOE 011815Z AUTO 13003KT 10SM SCT050 30/18 A3013 RMK AO2

10-Day Weather Forecast

×

Almanac

Astronomy

Sep. 01, 2015 Rise Set
Actual Time
Civil Twilight
Nautical Twilight
Astronomical Twilight
Moon
Length of Visible Light
Length of Day
Tomorrow will be .
, % of the Moon is Illuminated

Today's Extremes

State Highs State Lows

Community

WunderPhotos

Upload Photos

1,851,593 photos uploaded!

WunderBlogs® & News

Nearby

Air Quality

  Air Quality AQ Index Pollutant
Not available.

Snow Depth

Station Depth Elevation

Earthquake Activity

City Distance Mag. Time & Date
Minimum magnitude displayed is 2.5.

Coastal Water Temperatures

Place Temperature

Stations

Nearby Weather Stations

Station Location Temp. Windchill Dew Point Humidity Wind Precip. Elev Updated Type